Time;durP1;ratioP1;P1;durP2;ratioP2;P2;SDS_P1;SDS_P2;PMS_P1;PMS_P2;Temp;Humidity;BMP_temperature;BMP_pressure;BME280_temperature;BME280_humidity;BME280_pressure;Samples;Min_cycle;Max_cycle;Signal;HPM_P1;HPM_P2
2023/09/14 00:01:54;;;;;;;30.00;16.10;;;;;;;23.17;46.49;99160.45;109667;1250;62124;-57
2023/09/14 00:04:21;;;;;;;27.20;16.60;;;;;;;22.93;47.26;99159.69;109694;1251;60210;-56
2023/09/14 00:06:48;;;;;;;32.70;17.60;;;;;;;22.81;47.54;99166.35;109737;1251;73515;-57
2023/09/14 00:09:15;;;;;;;29.90;16.30;;;;;;;22.91;47.39;99161.08;109727;1250;68679;-55
2023/09/14 00:11:42;;;;;;;31.40;16.60;;;;;;;23.01;47.06;99155.71;109725;1250;71108;-56
2023/09/14 00:14:08;;;;;;;27.50;15.70;;;;;;;22.98;47.08;99158.17;109582;1252;60560;-56
2023/09/14 00:16:35;;;;;;;30.40;16.50;;;;;;;22.94;47.16;99152.48;109649;1251;60050;-57
2023/09/14 00:19:02;;;;;;;25.70;16.70;;;;;;;22.82;47.49;99154.42;109394;1251;74536;-55
2023/09/14 00:21:30;;;;;;;31.70;16.50;;;;;;;22.69;47.87;99149.73;109603;1252;68741;-56
2023/09/14 00:23:57;;;;;;;25.20;16.30;;;;;;;22.90;47.34;99153.80;109573;1252;70976;-57
2023/09/14 00:26:24;;;;;;;27.90;16.40;;;;;;;23.01;46.99;99151.73;109320;1253;62014;-58
2023/09/14 00:28:51;;;;;;;28.90;17.20;;;;;;;23.02;46.95;99152.60;109546;1251;60268;-56
2023/09/14 00:31:18;;;;;;;39.00;17.50;;;;;;;23.08;46.78;99144.89;109586;1252;74649;-60
2023/09/14 00:33:45;;;;;;;30.40;17.50;;;;;;;23.08;46.56;99146.00;109557;1251;68763;-60
2023/09/14 00:36:12;;;;;;;26.70;16.80;;;;;;;23.20;46.17;99145.55;109614;1253;72484;-57
2023/09/14 00:38:38;;;;;;;29.60;17.00;;;;;;;23.17;46.10;99147.02;109575;1252;61913;-56
2023/09/14 00:41:05;;;;;;;35.40;18.50;;;;;;;23.21;45.86;99151.44;109377;1254;59644;-57
2023/09/14 00:43:32;;;;;;;30.30;17.00;;;;;;;23.11;45.86;99148.63;109390;1254;72765;-58
2023/09/14 00:45:58;;;;;;;31.00;17.40;;;;;;;23.06;46.12;99154.84;109394;1254;69134;-56
2023/09/14 00:48:25;;;;;;;40.00;17.00;;;;;;;23.02;46.17;99148.23;109098;1254;71497;-59
2023/09/14 00:50:51;;;;;;;32.30;17.50;;;;;;;23.01;46.27;99145.16;109362;1254;60843;-57
2023/09/14 00:53:19;;;;;;;26.70;16.80;;;;;;;22.93;46.34;99139.02;109366;1254;60187;-58
2023/09/14 00:55:46;;;;;;;35.20;18.20;;;;;;;22.84;46.51;99133.67;109073;1254;74491;-57
2023/09/14 00:58:15;;;;;;;39.00;19.30;;;;;;;22.94;46.23;99135.36;109388;1254;68418;-57
2023/09/14 01:00:44;;;;;;;32.00;17.30;;;;;;;22.95;46.21;99131.96;109332;1254;71348;-56
2023/09/14 01:03:13;;;;;;;;;;;;;;;22.92;46.23;99131.27;109381;1254;61920;-56
2023/09/14 01:05:40;;;;;;;30.70;17.40;;;;;;;22.91;46.19;99127.57;109417;1256;59875;-57
2023/09/14 01:08:06;;;;;;;39.00;19.10;;;;;;;22.90;46.08;99127.04;109146;1254;74645;-56
2023/09/14 01:10:33;;;;;;;33.80;19.20;;;;;;;22.84;46.36;99129.45;109371;1254;68664;-59
2023/09/14 01:13:00;;;;;;;31.10;19.20;;;;;;;22.77;46.59;99123.16;109528;1251;72423;-57
2023/09/14 01:15:34;;;;;;;32.70;20.00;;;;;;;22.61;47.07;99122.20;109601;1252;60356;-57
2023/09/14 01:18:02;;;;;;;37.80;21.20;;;;;;;22.62;47.01;99129.11;109588;1251;58984;-56
2023/09/14 01:20:39;;;;;;;37.50;19.70;;;;;;;22.59;46.96;99129.11;109596;1253;74584;-57
2023/09/14 01:23:14;;;;;;;40.20;21.40;;;;;;;22.59;46.90;99127.86;109242;1250;68626;-59
2023/09/14 01:25:42;;;;;;;36.10;18.60;;;;;;;22.63;46.88;99128.04;109703;1250;72708;-57
2023/09/14 01:28:13;;;;;;;41.10;20.20;;;;;;;22.53;47.21;99120.71;109581;1250;61278;-57
2023/09/14 01:30:41;;;;;;;37.00;20.40;;;;;;;22.44;47.20;99123.65;109573;1251;60128;-56
2023/09/14 01:33:15;;;;;;;33.70;20.30;;;;;;;22.28;47.60;99122.42;109595;1250;73269;-57
2023/09/14 01:35:54;;;;;;;33.00;20.00;;;;;;;22.20;47.72;99114.60;109723;1251;68648;-57
2023/09/14 01:38:21;;;;;;;36.10;20.50;;;;;;;22.17;47.73;99114.02;109718;1251;72237;-57
2023/09/14 01:40:48;;;;;;;35.90;19.60;;;;;;;22.08;47.99;99109.98;109631;1251;62056;-55
2023/09/14 01:43:15;;;;;;;33.70;19.60;;;;;;;21.97;48.20;99107.00;109634;1251;60318;-57
2023/09/14 01:45:41;;;;;;;39.70;21.20;;;;;;;21.90;48.46;99108.36;109518;1251;74488;-57
2023/09/14 01:48:14;;;;;;;35.80;20.90;;;;;;;21.87;48.34;99108.11;109659;1251;67393;-59
2023/09/14 01:50:40;;;;;;;41.20;23.10;;;;;;;21.88;48.25;99104.51;109319;1250;71221;-57
2023/09/14 01:53:07;;;;;;;33.00;20.30;;;;;;;21.90;48.07;99102.23;109715;1251;61605;-57
2023/09/14 01:55:34;;;;;;;48.40;21.20;;;;;;;21.87;48.12;99097.28;109494;1251;59062;-56
2023/09/14 01:58:01;;;;;;;34.20;20.70;;;;;;;21.90;48.00;99102.52;109325;1250;74444;-57
2023/09/14 02:00:28;;;;;;;35.50;20.60;;;;;;;21.91;48.04;99100.39;109625;1252;69060;-57
2023/09/14 02:02:54;;;;;;;35.80;21.40;;;;;;;21.86;48.07;99099.98;109715;1250;71676;-59
2023/09/14 02:05:21;;;;;;;39.10;20.90;;;;;;;22.02;47.79;99097.52;109703;1251;61715;-57
2023/09/14 02:07:48;;;;;;;41.60;19.50;;;;;;;22.01;47.70;99100.71;109584;1251;59125;-57
2023/09/14 02:10:16;;;;;;;42.60;21.40;;;;;;;22.13;47.43;99098.66;109718;1250;74625;-57
2023/09/14 02:12:42;;;;;;;53.10;21.30;;;;;;;22.03;47.64;99092.64;109614;1253;68394;-56
2023/09/14 02:15:09;;;;;;;40.20;21.10;;;;;;;21.93;47.84;99090.52;109607;1251;72732;-56
2023/09/14 02:17:37;;;;;;;40.00;19.30;;;;;;;21.85;48.07;99086.28;109563;1253;62023;-57
2023/09/14 02:20:08;;;;;;;37.70;21.20;;;;;;;21.70;48.61;99088.74;109572;1252;58984;-57
2023/09/14 02:22:35;;;;;;;36.80;20.90;;;;;;;21.68;48.43;99085.17;109622;1251;74633;-59
2023/09/14 02:25:02;;;;;;;44.40;20.90;;;;;;;21.71;48.48;99085.52;109774;1250;68679;-59
2023/09/14 02:27:29;;;;;;;42.50;21.80;;;;;;;21.74;48.33;99087.17;109713;1251;72514;-56
2023/09/14 02:29:56;;;;;;;36.90;20.80;;;;;;;21.81;47.98;99086.16;109670;1251;60566;-57
2023/09/14 02:32:23;;;;;;;35.60;20.20;;;;;;;21.90;47.65;99092.13;109642;1251;58985;-57
2023/09/14 02:34:50;;;;;;;36.60;20.60;;;;;;;21.95;47.42;99092.14;109694;1250;73261;-56
2023/09/14 02:37:17;;;;;;;36.00;20.50;;;;;;;21.95;47.37;99094.27;109716;1250;67465;-56
2023/09/14 02:39:43;;;;;;;39.70;21.30;;;;;;;21.88;47.48;99099.49;109337;1251;72579;-57
2023/09/14 02:42:10;;;;;;;41.40;20.80;;;;;;;21.82;47.63;99095.48;109635;1251;60588;-58
2023/09/14 02:44:37;;;;;;;51.80;20.50;;;;;;;21.70;47.78;99098.58;109654;1250;59010;-57
2023/09/14 02:47:04;;;;;;;31.90;19.80;;;;;;;21.74;47.84;99095.05;109697;1251;73810;-57
2023/09/14 02:49:31;;;;;;;39.50;20.80;;;;;;;21.67;47.98;99096.94;109709;1250;67256;-57
2023/09/14 02:51:57;;;;;;;37.40;21.60;;;;;;;21.59;48.11;99095.42;109639;1251;71646;-57
2023/09/14 02:54:24;;;;;;;41.80;20.70;;;;;;;21.65;47.94;99097.50;109715;1250;61694;-58
2023/09/14 02:56:51;;;;;;;41.00;21.30;;;;;;;21.69;47.97;99097.14;109630;1251;58901;-56
2023/09/14 02:59:19;;;;;;;37.70;20.90;;;;;;;21.57;48.41;99096.60;109598;1251;74518;-56
2023/09/14 03:01:46;;;;;;;33.00;19.30;;;;;;;21.46;48.66;99089.74;109638;1251;68401;-58
2023/09/14 03:04:13;;;;;;;45.90;21.10;;;;;;;21.51;48.39;99087.89;109620;1250;73744;-58
2023/09/14 03:06:40;;;;;;;42.00;22.10;;;;;;;21.44;48.78;99078.50;109692;1251;61783;-59
2023/09/14 03:09:07;;;;;;;37.30;20.10;;;;;;;21.39;48.93;99079.55;109420;1251;59989;-59
2023/09/14 03:11:33;;;;;;;33.20;20.80;;;;;;;21.37;48.81;99079.27;109593;1251;74481;-58
2023/09/14 03:14:00;;;;;;;39.80;21.80;;;;;;;21.34;48.88;99080.40;109614;1252;68545;-58
2023/09/14 03:16:27;;;;;;;35.80;20.30;;;;;;;21.34;48.96;99084.45;109550;1252;72377;-56
2023/09/14 03:18:54;;;;;;;37.10;20.50;;;;;;;21.29;49.01;99085.52;109365;1251;60457;-58
2023/09/14 03:21:27;;;;;;;36.00;21.10;;;;;;;21.28;49.20;99084.95;109580;1252;59972;-56
2023/09/14 03:23:55;;;;;;;36.90;21.20;;;;;;;21.36;49.09;99086.27;109537;1253;73521;-58
2023/09/14 03:26:28;;;;;;;49.80;23.50;;;;;;;21.33;49.24;99083.98;109604;1253;67813;-57
2023/09/14 03:28:55;;;;;;;41.30;23.70;;;;;;;21.27;49.68;99081.30;109578;1253;71735;-56
2023/09/14 03:31:21;;;;;;;37.10;22.00;;;;;;;21.15;50.13;99082.09;109628;1252;60513;-57
2023/09/14 03:33:52;;;;;;;43.00;23.00;;;;;;;21.01;50.42;99085.17;109590;1252;59254;-57
2023/09/14 03:36:19;;;;;;;49.10;23.10;;;;;;;20.95;50.64;99086.05;109584;1252;72856;-57
2023/09/14 03:38:45;;;;;;;47.20;21.20;;;;;;;20.76;51.34;99080.15;109604;1253;67221;-57
2023/09/14 03:41:15;;;;;;;42.00;22.90;;;;;;;20.70;51.64;99084.59;109549;1251;71187;-57
2023/09/14 03:43:42;;;;;;;48.50;23.30;;;;;;;20.73;51.61;99087.11;109616;1252;61834;-57
2023/09/14 03:46:09;;;;;;;48.10;22.10;;;;;;;20.69;51.71;99087.67;109631;1251;59994;-56
2023/09/14 03:48:36;;;;;;;39.80;21.10;;;;;;;20.77;51.43;99085.24;109589;1252;73239;-57
2023/09/14 03:51:03;;;;;;;43.60;22.70;;;;;;;20.74;51.56;99086.92;109584;1252;67254;-56
2023/09/14 03:53:30;;;;;;;42.30;21.20;;;;;;;20.81;51.37;99085.91;109567;1252;72418;-56
2023/09/14 03:56:00;;;;;;;44.30;23.20;;;;;;;20.75;51.33;99080.95;109565;1253;60755;-57
2023/09/14 03:58:27;;;;;;;39.40;22.60;;;;;;;20.70;51.56;99084.71;109618;1252;58998;-57
2023/09/14 04:00:54;;;;;;;46.20;24.00;;;;;;;21.00;50.62;99088.87;109614;1252;73302;-58
2023/09/14 04:03:22;;;;;;;44.10;22.50;;;;;;;21.23;49.82;99089.45;109576;1253;68450;-58
2023/09/14 04:05:49;;;;;;;37.90;20.50;;;;;;;21.24;49.52;99089.73;109257;1253;71457;-59
2023/09/14 04:08:16;;;;;;;39.50;20.60;;;;;;;21.25;49.54;99093.98;109341;1252;59989;-58
2023/09/14 04:10:43;;;;;;;37.30;21.70;;;;;;;21.31;49.40;99103.46;109424;1253;59497;-60
2023/09/14 04:13:34;;;;;;;36.50;21.70;;;;;;;21.35;49.27;99110.64;109642;1251;74924;-58
2023/09/14 04:16:06;;;;;;;45.90;22.00;;;;;;;21.58;48.64;99112.85;109551;1251;67266;-57
2023/09/14 04:18:37;;;;;;;48.80;21.70;;;;;;;21.63;48.35;99106.79;109608;1252;72667;-57
2023/09/14 04:21:04;;;;;;;;;;;;;;;21.78;47.98;99101.37;109613;1252;61761;-57
2023/09/14 04:23:31;;;;;;;34.40;20.80;;;;;;;22.04;47.55;99105.64;109550;1251;58990;-56
2023/09/14 04:26:03;;;;;;;39.70;20.60;;;;;;;22.33;46.81;99103.02;109723;1251;74487;-57
2023/09/14 04:28:31;;;;;;;50.30;22.40;;;;;;;22.67;46.16;99103.64;109612;1251;68752;-57
2023/09/14 04:30:59;;;;;;;45.90;21.50;;;;;;;22.91;45.59;99107.55;109480;1251;129798;-56
2023/09/14 04:33:26;;;;;;;41.40;20.80;;;;;;;23.16;45.07;99104.05;109607;1251;61840;-56
2023/09/14 04:35:59;;;;;;;50.70;22.80;;;;;;;23.22;44.64;99105.63;109690;1251;60107;-58
2023/09/14 04:38:26;;;;;;;40.70;21.70;;;;;;;23.33;44.12;99101.67;109665;1251;74413;-57
2023/09/14 04:40:53;;;;;;;45.70;23.00;;;;;;;23.43;44.08;99102.84;109592;1251;68536;-57
2023/09/14 04:43:22;;;;;;;41.90;23.10;;;;;;;23.58;43.79;99104.95;109613;1251;73159;-56
2023/09/14 04:45:48;;;;;;;52.30;25.50;;;;;;;23.84;43.19;99108.29;109645;1251;61824;-57
2023/09/14 04:48:16;;;;;;;62.30;25.60;;;;;;;24.08;42.96;99109.69;109600;1251;60219;-57
2023/09/14 04:50:43;;;;;;;42.50;24.60;;;;;;;24.44;42.45;99114.35;109600;1251;74741;-56
2023/09/14 04:53:10;;;;;;;72.60;24.90;;;;;;;24.66;41.82;99113.23;109465;1250;68472;-57
2023/09/14 04:55:37;;;;;;;41.20;24.20;;;;;;;24.81;41.56;99115.66;109178;1257;71136;-60
2023/09/14 04:58:04;;;;;;;41.10;23.70;;;;;;;24.76;41.28;99112.57;109161;1256;59360;-56
2023/09/14 05:00:33;;;;;;;46.80;25.80;;;;;;;24.63;41.44;99113.94;109139;1257;60289;-58
2023/09/14 05:03:03;;;;;;;47.70;22.40;;;;;;;24.62;41.56;99109.85;109207;1257;74540;-61
2023/09/14 05:05:32;;;;;;;65.00;25.80;;;;;;;24.83;41.30;99112.19;109223;1256;68736;-56
2023/09/14 05:07:59;;;;;;;48.90;23.00;;;;;;;25.05;41.02;99112.40;109151;1255;72718;-58
2023/09/14 05:10:26;;;;;;;69.40;24.60;;;;;;;25.13;40.88;99114.61;109283;1256;59240;-58
2023/09/14 05:12:53;;;;;;;62.00;24.00;;;;;;;25.40;40.50;99111.30;109037;1255;59041;-57
2023/09/14 05:15:19;;;;;;;47.10;21.10;;;;;;;25.62;40.35;99109.95;109305;1256;74317;-58
2023/09/14 05:17:46;;;;;;;48.50;22.00;;;;;;;25.85;39.93;99112.50;109311;1254;68554;-57
2023/09/14 05:20:14;;;;;;;68.10;22.10;;;;;;;25.99;39.78;99111.11;109337;1255;71383;-57
2023/09/14 05:22:41;;;;;;;;;;;;;;;26.20;39.48;99116.63;109301;1257;60163;-57
2023/09/14 05:25:09;;;;;;;91.80;26.00;;;;;;;26.46;39.24;99116.46;109229;1258;59045;-58
2023/09/14 05:27:39;;;;;;;70.90;22.30;;;;;;;26.75;39.12;99112.02;109662;1251;74673;-59
2023/09/14 05:30:08;;;;;;;50.00;21.50;;;;;;;27.12;38.35;99112.08;109638;1252;68836;-57
2023/09/14 05:32:36;;;;;;;51.80;21.30;;;;;;;27.30;37.99;99107.61;109639;1251;71415;-58
2023/09/14 05:35:06;;;;;;;54.20;21.40;;;;;;;27.35;37.70;99108.77;109742;1251;58969;-56
2023/09/14 05:37:33;;;;;;;39.80;19.80;;;;;;;27.23;37.86;99105.31;109288;1251;60627;-56
2023/09/14 05:40:00;;;;;;;38.10;19.20;;;;;;;27.41;37.86;99110.16;109743;1250;74691;-56
2023/09/14 05:42:27;;;;;;;38.10;20.30;;;;;;;27.66;37.41;99112.14;109752;1251;67672;-58
2023/09/14 05:44:54;;;;;;;31.70;18.70;;;;;;;27.65;37.36;99111.73;109737;1251;72712;-58
2023/09/14 05:47:21;;;;;;;38.10;18.10;;;;;;;27.59;37.43;99108.84;109567;1252;60066;-58
2023/09/14 05:49:49;;;;;;;37.80;20.00;;;;;;;27.83;37.48;99103.80;109776;1251;60090;-58
2023/09/14 05:52:17;;;;;;;29.90;17.70;;;;;;;27.94;37.17;99111.23;109630;1251;73869;-56
2023/09/14 05:54:44;;;;;;;35.10;17.90;;;;;;;28.01;37.16;99116.17;109641;1252;68499;-57
2023/09/14 05:57:12;;;;;;;40.90;18.20;;;;;;;27.99;37.28;99117.27;109597;1251;70887;-56
2023/09/14 05:59:40;;;;;;;33.20;17.40;;;;;;;28.14;37.38;99124.02;109628;1251;60537;-56
2023/09/14 06:02:08;;;;;;;32.90;17.10;;;;;;;28.56;37.22;99121.79;109748;1251;58947;-56
2023/09/14 06:04:35;;;;;;;26.90;16.20;;;;;;;28.71;36.64;99115.66;109686;1251;74620;-57
2023/09/14 06:07:03;;;;;;;34.30;17.30;;;;;;;28.71;37.09;99114.95;109351;1251;67130;-56
2023/09/14 06:09:30;;;;;;;44.60;18.60;;;;;;;29.05;36.71;99120.88;109734;1251;72640;-56
2023/09/14 06:11:57;;;;;;;35.50;17.70;;;;;;;29.31;36.51;99119.45;109577;1251;59125;-57
2023/09/14 06:14:23;;;;;;;28.00;16.60;;;;;;;29.75;35.70;99121.25;109598;1251;60126;-57
2023/09/14 06:16:50;;;;;;;27.20;15.80;;;;;;;29.60;36.08;99118.14;109292;1253;73829;-58
2023/09/14 06:19:17;;;;;;;25.80;15.70;;;;;;;29.59;36.08;99116.95;109608;1253;67633;-56
2023/09/14 06:21:44;;;;;;;25.10;15.10;;;;;;;29.39;36.59;99113.73;109574;1253;72693;-56
2023/09/14 06:24:11;;;;;;;27.30;15.20;;;;;;;29.79;36.33;99111.38;109693;1251;59444;-58
2023/09/14 06:26:38;;;;;;;32.80;16.10;;;;;;;29.73;36.46;99111.77;109692;1251;60304;-58
2023/09/14 06:29:05;;;;;;;28.60;15.30;;;;;;;29.69;36.46;99109.23;109762;1251;74697;-59
2023/09/14 06:31:31;;;;;;;26.70;14.30;;;;;;;29.68;36.58;99107.24;109760;1251;67994;-56
2023/09/14 06:33:58;;;;;;;29.60;15.20;;;;;;;29.49;36.97;99112.25;109696;1251;71196;-59
2023/09/14 06:36:25;;;;;;;23.10;14.10;;;;;;;29.30;37.71;99112.52;109760;1251;60105;-57
2023/09/14 06:38:52;;;;;;;27.00;14.30;;;;;;;29.93;36.91;99113.27;109721;1251;60354;-57
2023/09/14 06:41:18;;;;;;;32.90;14.90;;;;;;;30.17;36.45;99115.25;109734;1255;73097;-57
2023/09/14 06:43:45;;;;;;;22.80;12.70;;;;;;;30.18;36.39;99109.48;109735;1251;68548;-62
2023/09/14 06:46:13;;;;;;;;;;;;;;;30.61;35.92;99111.57;109755;1250;71256;-58
2023/09/14 06:48:40;;;;;;;25.50;13.00;;;;;;;30.39;36.24;99103.31;109699;1251;60301;-60
2023/09/14 06:51:07;;;;;;;32.50;14.80;;;;;;;30.44;36.30;99110.26;109679;1251;60210;-57
2023/09/14 06:53:33;;;;;;;24.10;13.40;;;;;;;31.08;35.60;99115.15;109773;1251;74496;-57
2023/09/14 06:56:10;;;;;;;21.90;13.60;;;;;;;30.87;35.90;99118.23;109728;1251;67400;-57
2023/09/14 06:58:37;;;;;;;24.30;13.10;;;;;;;31.05;35.59;99114.77;109748;1251;72731;-58
2023/09/14 07:01:05;;;;;;;21.50;13.00;;;;;;;30.74;35.92;99112.80;109322;1251;58989;-59
2023/09/14 07:03:32;;;;;;;21.60;14.20;;;;;;;31.02;35.50;99105.67;109799;1250;59071;-61
2023/09/14 07:05:59;;;;;;;24.20;14.00;;;;;;;31.40;35.14;99105.48;109765;1251;65822;-58
2023/09/14 07:08:26;;;;;;;26.40;14.50;;;;;;;31.55;34.98;99113.58;109571;1251;67095;-58
2023/09/14 07:10:54;;;;;;;26.40;13.60;;;;;;;31.44;35.22;99114.66;109574;1251;71456;-58
2023/09/14 07:13:21;;;;;;;33.20;14.40;;;;;;;31.59;35.14;99116.08;109601;1254;59013;-57
2023/09/14 07:15:48;;;;;;;20.80;14.80;;;;;;;31.46;35.15;99117.66;109499;1253;59203;-58
2023/09/14 07:18:27;;;;;;;16.10;11.00;;;;;;;31.79;34.98;99117.77;109636;1251;64629;-57
2023/09/14 07:20:55;;;;;;;16.10;11.40;;;;;;;31.62;34.98;99118.52;109563;1253;60129;-59
2023/09/14 07:23:22;;;;;;;19.80;12.10;;;;;;;31.28;35.62;99121.08;109628;1251;72769;-58
2023/09/14 07:25:49;;;;;;;16.80;11.60;;;;;;;31.37;35.40;99121.42;109712;1251;60417;-56
2023/09/14 07:28:16;;;;;;;16.40;11.20;;;;;;;31.32;35.69;99120.27;109718;1251;60031;-57
2023/09/14 07:30:43;;;;;;;22.90;12.70;;;;;;;31.14;36.16;99117.66;109801;1251;74381;-56
2023/09/14 07:33:10;;;;;;;22.70;13.00;;;;;;;31.55;35.81;99120.14;109782;1251;68493;-57
2023/09/14 07:35:39;;;;;;;25.60;12.10;;;;;;;32.07;34.88;99121.91;109716;1250;62953;-57
2023/09/14 07:38:09;;;;;;;24.20;12.60;;;;;;;32.61;34.11;99122.38;109694;1250;58997;-57
2023/09/14 07:40:37;;;;;;;18.80;12.30;;;;;;;33.10;33.56;99124.84;109303;1251;59037;-57
2023/09/14 07:43:03;;;;;;;;;;;;;;;33.29;33.18;99129.63;109723;1250;64627;-57
2023/09/14 07:45:33;;;;;;;18.40;12.10;;;;;;;33.32;33.11;99126.00;109768;1251;60138;-57
2023/09/14 07:48:01;;;;;;;20.70;11.90;;;;;;;33.39;33.27;99121.77;109627;1251;64137;-57
2023/09/14 07:50:29;;;;;;;28.20;12.50;;;;;;;33.10;33.21;99120.71;109758;1250;59089;-59
2023/09/14 07:52:55;;;;;;;25.00;11.60;;;;;;;33.00;33.93;99121.48;109711;1251;58993;-61
2023/09/14 07:55:23;;;;;;;27.00;13.10;;;;;;;33.33;33.53;99123.46;109425;1251;66248;-57
2023/09/14 07:57:50;;;;;;;26.30;13.60;;;;;;;33.74;33.10;99124.30;109488;1251;59027;-57
2023/09/14 08:00:16;;;;;;;25.40;13.20;;;;;;;34.12;32.67;99125.13;109696;1251;63678;-57
2023/09/14 08:02:43;;;;;;;25.50;13.60;;;;;;;34.27;32.30;99126.24;109354;1251;59009;-57
2023/09/14 08:05:10;;;;;;;71.80;16.60;;;;;;;34.23;32.29;99127.33;109347;1251;59132;-57
2023/09/14 08:07:37;;;;;;;21.20;11.60;;;;;;;33.96;32.70;99121.16;109727;1250;64763;-57
2023/09/14 08:10:04;;;;;;;20.00;13.20;;;;;;;33.86;32.64;99123.31;109717;1251;59075;-57
2023/09/14 08:12:31;;;;;;;21.80;11.60;;;;;;;33.56;32.89;99123.28;109362;1252;64054;-56
2023/09/14 08:14:57;;;;;;;23.40;11.90;;;;;;;33.04;33.65;99119.41;109379;1254;59037;-57
2023/09/14 08:17:24;;;;;;;16.40;12.00;;;;;;;33.28;33.36;99120.73;109605;1251;58985;-58
2023/09/14 08:19:52;;;;;;;30.20;11.90;;;;;;;33.44;33.20;99122.41;109529;1253;64442;-57
2023/09/14 08:22:22;;;;;;;26.40;11.80;;;;;;;33.85;33.36;99122.22;109529;1251;59871;-58
2023/09/14 08:24:50;;;;;;;20.10;11.80;;;;;;;34.37;32.52;99127.98;109762;1251;63977;-56
2023/09/14 08:27:16;;;;;;;22.80;12.80;;;;;;;34.32;32.10;99128.23;109727;1250;58933;-57
2023/09/14 08:29:44;;;;;;;71.10;15.40;;;;;;;34.49;32.06;99127.83;109748;1251;58980;-58
2023/09/14 08:32:13;;;;;;;17.20;12.00;;;;;;;34.91;31.71;99128.08;109764;1251;64907;-58
2023/09/14 08:34:40;;;;;;;23.00;11.80;;;;;;;34.87;31.41;99126.10;109774;1251;59938;-57
2023/09/14 08:37:08;;;;;;;21.00;11.80;;;;;;;34.99;31.38;99123.61;109728;1251;62650;-57
2023/09/14 08:39:36;;;;;;;62.60;15.20;;;;;;;35.15;31.27;99122.59;109722;1251;59085;-58
2023/09/14 08:42:02;;;;;;;22.90;10.70;;;;;;;35.25;31.37;99124.29;109712;1250;58977;-58
2023/09/14 08:44:33;;;;;;;23.10;12.40;;;;;;;34.86;31.68;99119.58;109813;1251;64630;-57
2023/09/14 08:47:00;;;;;;;17.30;11.80;;;;;;;34.57;31.82;99117.84;109605;1251;59048;-57
2023/09/14 08:49:28;;;;;;;23.30;12.40;;;;;;;34.45;31.81;99117.00;109516;1251;62824;-57
2023/09/14 08:51:58;;;;;;;20.00;11.80;;;;;;;34.65;31.88;99112.27;109565;1251;58973;-58
2023/09/14 08:54:25;;;;;;;44.70;20.50;;;;;;;35.29;31.61;99115.56;109743;1251;58839;-58
2023/09/14 08:56:52;;;;;;;28.80;14.10;;;;;;;35.42;30.77;99116.27;109718;1251;64842;-57
2023/09/14 08:59:19;;;;;;;22.90;13.30;;;;;;;35.10;31.20;99117.75;109723;1250;59335;-57
2023/09/14 09:01:47;;;;;;;;;;;;;;;35.54;31.09;99115.75;109648;1251;63808;-57
2023/09/14 09:04:14;;;;;;;19.60;10.30;;;;;;;35.32;30.95;99116.30;109705;1251;58968;-56
2023/09/14 09:06:42;;;;;;;16.50;10.90;;;;;;;34.59;31.76;99112.77;109449;1250;59176;-57
2023/09/14 09:09:09;;;;;;;22.60;11.50;;;;;;;34.91;31.61;99113.42;109370;1251;66110;-57
2023/09/14 09:11:37;;;;;;;25.90;13.20;;;;;;;35.11;31.41;99111.34;109683;1250;59006;-57
2023/09/14 09:14:04;;;;;;;27.10;11.30;;;;;;;35.66;30.86;99107.42;109581;1252;62702;-57
2023/09/14 09:16:31;;;;;;;17.50;10.70;;;;;;;35.75;30.67;99114.73;109584;1251;59231;-58
2023/09/14 09:19:06;;;;;;;15.50;9.90;;;;;;;35.05;31.18;99109.63;109647;1251;59010;-57
2023/09/14 09:21:36;;;;;;;23.50;10.80;;;;;;;35.07;31.64;99105.61;109557;1252;65898;-57
2023/09/14 09:24:03;;;;;;;;;;;;;;;35.55;30.82;99103.14;109705;1250;59964;-57
2023/09/14 09:26:37;;;;;;;18.40;11.00;;;;;;;35.40;31.00;99103.71;109745;1250;63872;-56
2023/09/14 09:29:18;;;;;;;20.10;9.60;;;;;;;35.30;30.68;99106.09;109329;1251;59034;-56
2023/09/14 09:31:52;;;;;;;20.60;10.60;;;;;;;35.70;30.50;99104.32;109757;1250;59382;-57
2023/09/14 09:34:20;;;;;;;22.30;10.90;;;;;;;35.83;29.90;99106.78;109211;1251;65863;-58
2023/09/14 09:36:48;;;;;;;14.70;9.50;;;;;;;35.96;29.63;99103.37;109784;1251;59088;-56
2023/09/14 09:39:15;;;;;;;15.70;10.30;;;;;;;35.62;30.15;99102.34;109642;1251;64045;-58
2023/09/14 09:41:41;;;;;;;26.20;10.60;;;;;;;36.44;29.56;99105.07;109740;1250;58961;-56
2023/09/14 09:44:13;;;;;;;13.90;8.80;;;;;;;36.99;29.09;99101.17;109700;1250;58982;-56
2023/09/14 09:46:40;;;;;;;18.40;9.10;;;;;;;36.82;28.98;99104.39;109747;1250;65673;-57
2023/09/14 09:49:20;;;;;;;15.80;8.80;;;;;;;36.43;28.97;99101.69;109634;1251;59929;-57
2023/09/14 09:51:48;;;;;;;25.70;8.90;;;;;;;36.29;29.35;99101.42;109726;1250;63927;-59
2023/09/14 09:54:18;;;;;;;18.40;10.20;;;;;;;36.57;28.83;99100.77;109664;1251;58887;-60
2023/09/14 09:56:45;;;;;;;14.20;9.50;;;;;;;36.46;28.69;99098.17;109474;1251;58998;-60
2023/09/14 09:59:14;;;;;;;8.80;7.90;;;;;;;36.83;28.44;99096.77;109787;1250;64818;-56
2023/09/14 10:01:43;;;;;;;17.60;8.90;;;;;;;37.18;27.67;99099.82;109744;1250;59870;-57
2023/09/14 10:04:15;;;;;;;13.80;9.00;;;;;;;37.49;27.52;99098.23;109781;1250;64031;-57
2023/09/14 10:06:51;;;;;;;16.30;8.40;;;;;;;37.32;27.53;99093.48;109680;1250;58953;-57
2023/09/14 10:09:18;;;;;;;18.80;9.50;;;;;;;37.05;27.86;99088.86;109591;1250;59030;-57
2023/09/14 10:11:46;;;;;;;15.90;9.80;;;;;;;37.27;27.86;99088.12;109771;1250;65828;-57
2023/09/14 10:14:13;;;;;;;17.90;9.30;;;;;;;37.58;27.87;99087.67;109384;1252;60083;-57
2023/09/14 10:16:40;;;;;;;;;;;;;;;37.82;27.45;99083.92;109541;1252;62810;-59
2023/09/14 10:19:08;;;;;;;15.30;8.70;;;;;;;37.71;27.51;99082.77;109577;1252;58950;-60
2023/09/14 10:21:36;;;;;;;15.40;7.70;;;;;;;37.53;27.32;99081.49;109580;1252;59071;-59
2023/09/14 10:24:05;;;;;;;15.10;8.60;;;;;;;36.61;28.24;99076.98;109362;1251;64798;-60
2023/09/14 10:26:36;;;;;;;15.80;8.60;;;;;;;37.05;27.49;99078.05;109658;1250;60181;-57
2023/09/14 10:29:07;;;;;;;14.20;9.40;;;;;;;37.01;27.83;99075.30;109723;1250;63986;-56
2023/09/14 10:31:34;;;;;;;17.70;9.90;;;;;;;36.63;28.13;99074.71;109721;1250;58933;-57
2023/09/14 10:34:03;;;;;;;20.50;9.00;;;;;;;36.60;28.45;99071.19;109461;1251;59046;-59
2023/09/14 10:36:31;;;;;;;21.40;9.80;;;;;;;37.00;28.17;99072.70;109645;1251;65893;-57
2023/09/14 10:38:59;;;;;;;19.70;10.00;;;;;;;37.26;27.73;99075.77;109718;1250;59029;-57
2023/09/14 10:41:26;;;;;;;18.60;10.20;;;;;;;37.25;27.37;99081.02;109743;1250;72372;-57
2023/09/14 10:43:54;;;;;;;16.30;8.60;;;;;;;37.29;27.28;99079.27;109512;1251;58989;-56
2023/09/14 10:46:26;;;;;;;18.30;8.50;;;;;;;37.33;26.91;99072.09;109746;1250;59019;-58
2023/09/14 10:48:53;;;;;;;16.90;8.20;;;;;;;37.30;27.21;99073.18;109611;1251;66114;-57
2023/09/14 10:51:23;;;;;;;19.00;8.80;;;;;;;36.91;27.42;99070.66;109630;1251;59111;-56
2023/09/14 10:53:51;;;;;;;19.50;8.70;;;;;;;36.73;27.73;99065.40;109482;1251;62923;-58
2023/09/14 10:56:21;;;;;;;19.60;8.00;;;;;;;36.57;27.79;99065.79;109598;1251;59076;-56
2023/09/14 10:58:52;;;;;;;14.90;7.30;;;;;;;36.58;27.73;99063.05;109722;1251;59049;-56
2023/09/14 11:01:25;;;;;;;45.00;10.90;;;;;;;36.41;27.96;99062.15;109726;1250;65802;-59
2023/09/14 11:04:08;;;;;;;16.50;8.50;;;;;;;36.26;28.01;99060.08;109812;1250;60078;-58
2023/09/14 11:06:42;;;;;;;14.40;7.70;;;;;;;35.62;28.31;99058.16;109751;1250;63315;-56
2023/09/14 11:09:13;;;;;;;15.60;7.20;;;;;;;35.75;28.43;99064.14;109706;1250;58901;-58
2023/09/14 11:11:43;;;;;;;24.80;8.80;;;;;;;36.21;27.85;99060.70;109599;1250;59159;-60
2023/09/14 11:14:13;;;;;;;22.10;7.90;;;;;;;36.24;27.60;99058.30;109530;1252;65948;-57
2023/09/14 11:16:41;;;;;;;14.90;6.90;;;;;;;36.20;27.30;99056.16;109623;1250;59280;-57